Time;durP1;ratioP1;P1;durP2;ratioP2;P2;SDS_P1;SDS_P2;PMS_P1;PMS_P2;Temp;Humidity;BMP_temperature;BMP_pressure;BME280_temperature;BME280_humidity;BME280_pressure;Samples;Min_cycle;Max_cycle;Signal;HPM_P1;HPM_P2
2024/04/04 00:01:57;;;;;;;;;;;;;;;16.50;46.49;100833.88;5058227;28;1168;-54
2024/04/04 00:04:22;;;;;;;;;;;;;;;17.43;47.33;100829.22;5075875;28;1906;-51
2024/04/04 00:06:48;;;;;;;;;;;;;;;16.79;47.97;100827.88;5076025;28;1083;-54
2024/04/04 00:09:14;;;;;;;;;;;;;;;16.49;47.46;100824.81;5065002;28;1134;-53
2024/04/04 00:11:39;;;;;;;;;;;;;;;16.41;47.00;100819.84;5055687;28;1142;-52
2024/04/04 00:14:06;;;;;;;;;;;;;;;16.33;46.39;100818.47;5056464;28;1091;-53
2024/04/04 00:16:35;;;;;;;;;;;;;;;16.89;46.61;100831.47;5066054;28;1167;-52
2024/04/04 00:19:01;;;;;;;;;;;;;;;17.03;47.47;100817.22;5064270;28;1087;-52
2024/04/04 00:21:26;;;;;;;;;;;;;;;16.63;47.64;100814.13;5068830;28;1100;-52
2024/04/04 00:23:52;;;;;;;;;;;;;;;17.11;47.70;100808.41;5056188;28;1898;-54
2024/04/04 00:26:17;;;;;;;;;;;;;;;17.02;47.87;100810.06;5069447;28;1175;-52
2024/04/04 00:28:43;;;;;;;;;;;;;;;16.62;47.72;100807.00;5057366;28;896;-52
2024/04/04 00:31:09;;;;;;;;;;;;;;;16.51;47.05;100800.66;5055571;28;1079;-54
2024/04/04 00:33:35;;;;;;;;;;;;;;;17.65;47.20;100804.16;5055613;28;1473;-54
2024/04/04 00:36:00;;;;;;;;;;;;;;;16.79;47.89;100808.63;5069517;28;1043;-54
2024/04/04 00:38:27;;;;;;;;;;;;;;;16.61;47.23;100810.84;5067561;28;1067;-52
2024/04/04 00:40:52;;;;;;;;;;;;;;;16.52;46.65;100807.81;5066114;28;1113;-53
2024/04/04 00:43:18;;;;;;;;;;;;;;;16.36;46.24;100809.69;5075634;28;1983;-53
2024/04/04 00:45:43;;;;;;;;;;;;;;;17.19;47.14;100804.25;5070986;28;1172;-53
2024/04/04 00:48:09;;;;;;;;;;;;;;;16.91;47.52;100801.00;5049544;28;1064;-54
2024/04/04 00:50:34;;;;;;;;;;;;;;;16.61;47.18;100799.84;5053540;28;1063;-54
2024/04/04 00:53:00;;;;;;;;;;;;;;;16.49;46.51;100799.28;5040558;28;885;-53
2024/04/04 00:55:25;;;;;;;;;;;;;;;16.91;46.88;100801.84;5051031;28;1159;-54
2024/04/04 00:57:51;;;;;;;;;;;;;;;16.95;47.64;100793.84;5060128;28;1080;-53
2024/04/04 01:00:17;;;;;;;;;;;;;;;16.51;47.54;100794.34;5044229;28;1563;-54
2024/04/04 01:02:42;;;;;;;;;;;;;;;17.03;47.44;100789.75;5046746;28;1967;-51
2024/04/04 01:05:08;;;;;;;;;;;;;;;17.05;47.72;100793.81;5065272;28;1324;-53
2024/04/04 01:07:33;;;;;;;;;;;;;;;16.67;47.36;100801.50;5048047;28;1505;-53
2024/04/04 01:10:06;;;;;;;;;;;;;;;17.48;47.16;100800.91;5026679;28;1313;-50
2024/04/04 01:12:31;;;;;;;;;;;;;;;17.03;47.93;100785.06;5068381;28;1218;-54
2024/04/04 01:14:57;;;;;;;;;;;;;;;16.71;47.68;100777.06;5062166;28;1082;-55
2024/04/04 01:17:22;;;;;;;;;;;;;;;16.55;46.91;100784.47;5072377;28;816;-55
2024/04/04 01:19:48;;;;;;;;;;;;;;;17.83;46.89;100786.22;5075472;28;1078;-55
2024/04/04 01:22:13;;;;;;;;;;;;;;;16.98;47.84;100782.31;5063732;28;1082;-55
2024/04/04 01:24:39;;;;;;;;;;;;;;;16.80;47.31;100771.84;5072126;28;1970;-52
2024/04/04 01:27:04;;;;;;;;;;;;;;;16.56;46.91;100769.66;5071159;28;1154;-51
2024/04/04 01:29:30;;;;;;;;;;;;;;;16.53;46.26;100767.47;5070615;28;1147;-53
2024/04/04 01:31:55;;;;;;;;;;;;;;;17.37;47.38;100756.13;5059357;28;1016;-46
2024/04/04 01:34:21;;;;;;;;;;;;;;;16.64;47.86;100755.38;5050389;28;1163;-49
2024/04/04 01:36:46;;;;;;;;;;;;;;;16.64;46.95;100751.81;5043689;28;1579;-47
2024/04/04 01:39:12;;;;;;;;;;;;;;;16.42;46.42;100753.75;5053383;28;1254;-49
2024/04/04 01:41:39;;;;;;;;;;;;;;;17.35;47.23;100752.81;5061881;28;1317;-51
2024/04/04 01:44:06;;;;;;;;;;;;;;;16.75;47.52;100751.53;5057928;28;1985;-54
2024/04/04 01:46:31;;;;;;;;;;;;;;;16.54;46.91;100749.91;5056871;28;1294;-52
2024/04/04 01:48:57;;;;;;;;;;;;;;;16.50;46.35;100752.34;5057452;28;1434;-53
2024/04/04 01:51:22;;;;;;;;;;;;;;;17.19;46.69;100743.81;5057833;28;1092;-49
2024/04/04 01:53:48;;;;;;;;;;;;;;;16.88;47.64;100749.34;5059261;28;970;-49
2024/04/04 01:56:13;;;;;;;;;;;;;;;16.66;47.01;100744.13;5053974;28;1407;-52
2024/04/04 01:58:39;;;;;;;;;;;;;;;17.48;47.09;100741.25;5053630;28;1114;-50
2024/04/04 02:01:04;;;;;;;;;;;;;;;17.00;47.80;100747.16;5063592;28;1059;-50
2024/04/04 02:03:30;;;;;;;;;;;;;;;16.71;47.55;100744.94;5057955;28;1917;-52
2024/04/04 02:05:55;;;;;;;;;;;;;;;16.54;46.77;100749.91;5068850;28;865;-53
2024/04/04 02:08:20;;;;;;;;;;;;;;;16.45;46.13;100746.03;5073894;28;1055;-52
2024/04/04 02:10:46;;;;;;;;;;;;;;;16.41;45.94;100754.81;5069673;28;1059;-51
2024/04/04 02:13:11;;;;;;;;;;;;;;;16.29;45.78;100751.50;5065144;28;1139;-47
2024/04/04 02:15:38;;;;;;;;;;;;;;;17.39;46.62;100752.00;5070955;28;1042;-51
2024/04/04 02:18:04;;;;;;;;;;;;;;;16.60;47.55;100754.28;5065011;28;1055;-51
2024/04/04 02:20:29;;;;;;;;;;;;;;;16.41;47.21;100756.72;5066458;28;1105;-53
2024/04/04 02:22:55;;;;;;;;;;;;;;;16.83;47.13;100757.56;5075803;28;1981;-47
2024/04/04 02:25:20;;;;;;;;;;;;;;;16.85;47.46;100771.88;5077546;28;1149;-48
2024/04/04 02:27:46;;;;;;;;;;;;;;;16.56;47.13;100754.03;5064298;28;1054;-52
2024/04/04 02:30:12;;;;;;;;;;;;;;;17.88;46.74;100768.84;5060018;28;834;-50
2024/04/04 02:32:37;;;;;;;;;;;;;;;16.96;47.83;100765.28;5075296;28;1035;-51
2024/04/04 02:35:04;;;;;;;;;;;;;;;16.58;47.77;100765.53;5066744;28;1233;-50
2024/04/04 02:37:30;;;;;;;;;;;;;;;16.46;46.96;100773.22;5047632;28;1120;-49
2024/04/04 02:39:56;;;;;;;;;;;;;;;16.49;46.49;100771.84;5075845;28;1056;-48
2024/04/04 02:42:21;;;;;;;;;;;;;;;17.29;47.21;100765.75;5058942;28;1034;-48
2024/04/04 02:44:47;;;;;;;;;;;;;;;16.89;47.85;100764.75;5062916;28;1905;-49
2024/04/04 02:47:12;;;;;;;;;;;;;;;16.51;47.49;100772.38;5077296;28;1023;-49
2024/04/04 02:49:38;;;;;;;;;;;;;;;16.56;46.71;100758.66;5064320;28;1046;-49
2024/04/04 02:52:04;;;;;;;;;;;;;;;16.30;46.47;100758.66;5066386;28;1125;-51
2024/04/04 02:54:29;;;;;;;;;;;;;;;16.28;45.90;100773.75;5062828;28;888;-47
2024/04/04 02:56:55;;;;;;;;;;;;;;;17.05;47.12;100769.09;5065983;28;1074;-46
2024/04/04 02:59:20;;;;;;;;;;;;;;;16.54;47.24;100771.84;5070440;28;1163;-49
2024/04/04 03:01:46;;;;;;;;;;;;;;;16.33;46.77;100766.34;5054507;28;1276;-51
2024/04/04 03:04:11;;;;;;;;;;;;;;;16.31;46.14;100763.03;5064509;28;1902;-50
2024/04/04 03:06:37;;;;;;;;;;;;;;;17.15;46.47;100759.22;5071536;28;1001;-49
2024/04/04 03:09:07;;;;;;;;;;;;;;;16.82;47.30;100767.75;5077139;28;1083;-52
2024/04/04 03:11:33;;;;;;;;;;;;;;;16.56;46.80;100766.91;5062716;28;1182;-49
2024/04/04 03:13:58;;;;;;;;;;;;;;;16.37;46.45;100772.94;5064695;28;1063;-49
2024/04/04 03:16:24;;;;;;;;;;;;;;;17.51;46.34;100767.38;5063217;28;1083;-51
2024/04/04 03:18:49;;;;;;;;;;;;;;;16.58;47.72;100768.28;5056242;28;977;-51
2024/04/04 03:21:15;;;;;;;;;;;;;;;16.40;47.07;100777.88;5070842;28;1100;-49
2024/04/04 03:23:40;;;;;;;;;;;;;;;16.27;46.45;100766.59;5069662;28;1910;-50
2024/04/04 03:26:06;;;;;;;;;;;;;;;16.21;46.03;100771.25;5071000;28;1179;-48
2024/04/04 03:28:31;;;;;;;;;;;;;;;16.17;45.64;100770.13;5069502;28;983;-46
2024/04/04 03:30:57;;;;;;;;;;;;;;;17.15;46.44;100778.44;5062991;28;1139;-48
2024/04/04 03:33:23;;;;;;;;;;;;;;;16.44;47.21;100783.66;5057633;28;1352;-50
2024/04/04 03:35:48;;;;;;;;;;;;;;;16.61;47.02;100772.41;5065740;28;1182;-54
2024/04/04 03:38:14;;;;;;;;;;;;;;;16.88;47.54;100783.13;5049787;28;1345;-48
2024/04/04 03:40:39;;;;;;;;;;;;;;;16.50;47.58;100768.00;5055253;28;1346;-51
2024/04/04 03:43:06;;;;;;;;;;;;;;;16.36;46.91;100768.53;5068066;28;2027;-49
2024/04/04 03:45:37;;;;;;;;;;;;;;;16.21;46.30;100763.00;5070348;28;1110;-51
2024/04/04 03:48:02;;;;;;;;;;;;;;;16.10;45.83;100759.41;5040738;28;1219;-52
2024/04/04 03:50:28;;;;;;;;;;;;;;;17.25;46.48;100746.28;5064841;28;1072;-52
2024/04/04 03:52:54;;;;;;;;;;;;;;;16.89;47.29;100751.03;5054907;28;1516;-53
2024/04/04 03:55:20;;;;;;;;;;;;;;;16.48;47.12;100751.81;5049933;28;1247;-51
2024/04/04 03:57:47;;;;;;;;;;;;;;;16.36;46.60;100746.56;5059805;28;965;-51
2024/04/04 04:00:12;;;;;;;;;;;;;;;16.53;46.57;100751.81;5066261;28;1024;-50
2024/04/04 04:02:45;;;;;;;;;;;;;;;17.07;47.39;100749.63;5055051;28;1980;-46
2024/04/04 04:05:11;;;;;;;;;;;;;;;16.43;47.73;100747.13;5057849;28;1087;-47
2024/04/04 04:07:38;;;;;;;;;;;;;;;17.14;46.70;100765.78;5065828;28;1183;-50
2024/04/04 04:10:04;;;;;;;;;;;;;;;17.32;45.91;100770.72;5049329;28;1275;-51
2024/04/04 04:12:29;;;;;;;;;;;;;;;16.95;46.96;100760.06;5041547;28;1489;-47
2024/04/04 04:14:55;;;;;;;;;;;;;;;16.79;47.32;100750.97;5063295;28;1252;-46
2024/04/04 04:17:20;;;;;;;;;;;;;;;16.63;47.88;100750.97;5057159;28;1182;-48
2024/04/04 04:19:46;;;;;;;;;;;;;;;16.45;48.46;100744.09;5066895;28;1173;-49
2024/04/04 04:22:11;;;;;;;;;;;;;;;16.37;48.67;100750.16;5068029;28;1103;-48
2024/04/04 04:24:37;;;;;;;;;;;;;;;16.22;48.97;100749.03;5065490;28;1905;-48
2024/04/04 04:27:03;;;;;;;;;;;;;;;16.08;49.34;100742.44;5069049;28;1080;-47
2024/04/04 04:29:29;;;;;;;;;;;;;;;16.08;49.44;100754.22;5072992;28;1047;-51
2024/04/04 04:31:56;;;;;;;;;;;;;;;16.03;49.60;100750.63;5067429;28;1521;-52
2024/04/04 04:34:22;;;;;;;;;;;;;;;16.14;49.58;100763.28;5057266;28;1016;-46
2024/04/04 04:37:00;;;;;;;;;;;;;;;17.71;45.71;100760.97;5056250;28;1151;-48
2024/04/04 04:39:26;;;;;;;;;;;;;;;17.01;47.13;100759.81;5058791;28;1505;-51
2024/04/04 04:41:52;;;;;;;;;;;;;;;16.63;48.36;100761.97;5054911;28;1361;-48
2024/04/04 04:44:17;;;;;;;;;;;;;;;16.34;49.29;100773.47;5068460;28;1898;-49
2024/04/04 04:46:43;;;;;;;;;;;;;;;16.14;49.62;100760.53;5055042;28;1160;-52
2024/04/04 04:49:08;;;;;;;;;;;;;;;16.06;49.87;100772.03;5063269;28;1123;-50
2024/04/04 04:51:34;;;;;;;;;;;;;;;16.04;49.95;100774.22;5045560;28;1217;-50
2024/04/04 04:53:59;;;;;;;;;;;;;;;17.56;46.35;100770.09;5068126;28;1082;-51
2024/04/04 04:56:25;;;;;;;;;;;;;;;17.08;47.27;100757.59;5062516;28;1204;-52
2024/04/04 04:58:50;;;;;;;;;;;;;;;16.68;48.38;100772.94;5068332;28;1107;-50
2024/04/04 05:01:16;;;;;;;;;;;;;;;16.37;49.32;100781.16;5047636;28;1306;-52
2024/04/04 05:03:41;;;;;;;;;;;;;;;16.20;49.60;100772.34;5056477;28;1898;-50
2024/04/04 05:06:07;;;;;;;;;;;;;;;16.15;49.81;100769.59;5063612;28;1431;-48
2024/04/04 05:08:33;;;;;;;;;;;;;;;16.00;50.17;100782.16;5079637;28;1086;-53
2024/04/04 05:10:59;;;;;;;;;;;;;;;16.36;49.57;100795.97;5065740;28;1306;-49
2024/04/04 05:13:26;;;;;;;;;;;;;;;17.84;45.83;100787.03;5077553;28;1052;-50
2024/04/04 05:15:55;;;;;;;;;;;;;;;16.97;48.00;100779.84;5063622;28;1243;-48
2024/04/04 05:18:24;;;;;;;;;;;;;;;16.55;48.81;100778.97;5052386;28;1199;-48
2024/04/04 05:20:57;;;;;;;;;;;;;;;16.27;49.50;100781.16;5060199;28;1208;-48
2024/04/04 05:23:22;;;;;;;;;;;;;;;16.20;49.72;100783.31;5046927;28;1973;-48
2024/04/04 05:25:47;;;;;;;;;;;;;;;16.02;50.42;100782.72;5065442;28;1199;-49
2024/04/04 05:28:13;;;;;;;;;;;;;;;16.05;50.37;100776.69;5060060;28;1048;-51
2024/04/04 05:30:38;;;;;;;;;;;;;;;17.64;46.61;100775.00;5048646;28;1200;-48
2024/04/04 05:33:05;;;;;;;;;;;;;;;16.95;47.94;100782.06;5054750;28;1239;-49
2024/04/04 05:35:30;;;;;;;;;;;;;;;16.50;49.00;100776.25;5069619;28;988;-50
2024/04/04 05:37:56;;;;;;;;;;;;;;;16.27;49.86;100772.94;5072275;28;1075;-48
2024/04/04 05:40:23;;;;;;;;;;;;;;;16.13;50.24;100771.78;5055544;28;937;-48
2024/04/04 05:42:48;;;;;;;;;;;;;;;16.90;48.57;100763.63;5058475;28;2014;-49
2024/04/04 05:45:14;;;;;;;;;;;;;;;17.76;46.21;100771.94;5051378;28;973;-46
2024/04/04 05:47:39;;;;;;;;;;;;;;;16.91;48.51;100776.28;5072356;28;1238;-50
2024/04/04 05:50:05;;;;;;;;;;;;;;;16.50;49.36;100766.06;5075056;28;1055;-47
2024/04/04 05:52:30;;;;;;;;;;;;;;;16.31;50.14;100767.69;5045717;28;1099;-46
2024/04/04 05:54:56;;;;;;;;;;;;;;;16.16;50.20;100763.84;5061336;28;1299;-49
2024/04/04 05:57:21;;;;;;;;;;;;;;;16.08;50.62;100776.16;5070583;28;1096;-46
2024/04/04 05:59:47;;;;;;;;;;;;;;;16.37;49.87;100777.59;5064817;28;1082;-47
2024/04/04 06:02:12;;;;;;;;;;;;;;;17.86;46.37;100782.88;5043483;28;1124;-47
2024/04/04 06:04:39;;;;;;;;;;;;;;;17.00;48.24;100769.13;5052147;28;1965;-48
2024/04/04 06:07:04;;;;;;;;;;;;;;;16.67;49.25;100785.03;5066006;28;1158;-49
2024/04/04 06:09:30;;;;;;;;;;;;;;;16.41;49.81;100787.75;5070811;28;1198;-48
2024/04/04 06:11:55;;;;;;;;;;;;;;;16.24;50.14;100779.78;5065366;28;1136;-47
2024/04/04 06:14:21;;;;;;;;;;;;;;;16.07;50.78;100788.25;5040041;28;1237;-48
2024/04/04 06:16:46;;;;;;;;;;;;;;;16.29;50.34;100798.16;5064963;28;1107;-51
2024/04/04 06:19:12;;;;;;;;;;;;;;;17.75;46.95;100795.88;5060742;28;1158;-49
2024/04/04 06:21:38;;;;;;;;;;;;;;;16.95;48.63;100793.84;5066125;28;1166;-50
2024/04/04 06:24:03;;;;;;;;;;;;;;;16.60;49.57;100812.75;5071569;28;1901;-45
2024/04/04 06:26:29;;;;;;;;;;;;;;;16.30;50.38;100798.97;5071276;28;1146;-45
2024/04/04 06:28:57;;;;;;;;;;;;;;;16.22;50.31;100800.34;5058394;28;1052;-46
2024/04/04 06:31:23;;;;;;;;;;;;;;;17.52;47.47;100799.25;5057803;28;915;-51
2024/04/04 06:33:48;;;;;;;;;;;;;;;17.22;47.89;100793.56;5057837;28;1079;-48
2024/04/04 06:36:16;;;;;;;;;;;;;;;16.70;49.57;100805.63;5046352;28;1392;-51
2024/04/04 06:38:41;;;;;;;;;;;;;;;16.47;49.89;100804.25;5055961;28;1300;-50
2024/04/04 06:41:06;;;;;;;;;;;;;;;16.35;50.51;100810.78;5049782;28;1371;-48
2024/04/04 06:43:32;;;;;;;;;;;;;;;16.19;50.93;100803.63;5062831;28;1909;-46
2024/04/04 06:45:58;;;;;;;;;;;;;;;16.08;50.93;100808.25;5047312;28;1015;-49
2024/04/04 06:48:23;;;;;;;;;;;;;;;17.32;48.13;100811.94;5049463;28;1229;-48
2024/04/04 06:50:49;;;;;;;;;;;;;;;17.55;47.43;100806.94;5046533;28;929;-47
2024/04/04 06:53:14;;;;;;;;;;;;;;;16.75;49.39;100800.97;5059031;28;1297;-48
2024/04/04 06:55:40;;;;;;;;;;;;;;;16.57;49.96;100801.50;5067859;28;818;-50
2024/04/04 06:58:05;;;;;;;;;;;;;;;16.36;50.34;100809.69;5059813;28;1102;-46
2024/04/04 07:00:31;;;;;;;;;;;;;;;16.19;50.68;100809.13;5050471;28;1497;-48
2024/04/04 07:02:57;;;;;;;;;;;;;;;17.39;48.19;100803.41;5048482;28;1973;-49
2024/04/04 07:05:24;;;;;;;;;;;;;;;17.37;47.89;100800.94;5049069;28;1116;-49
2024/04/04 07:07:49;;;;;;;;;;;;;;;16.79;49.72;100795.75;5044696;28;1305;-49
2024/04/04 07:10:15;;;;;;;;;;;;;;;16.55;50.24;100795.44;5049504;28;1607;-47
2024/04/04 07:12:40;;;;;;;;;;;;;;;16.39;50.47;100798.16;5048725;28;1365;-47
2024/04/04 07:15:07;;;;;;;;;;;;;;;16.25;51.12;100802.53;5054088;28;1325;-46
2024/04/04 07:17:32;;;;;;;;;;;;;;;16.13;51.12;100794.56;5058432;28;1107;-51
2024/04/04 07:19:58;;;;;;;;;;;;;;;16.14;51.10;100798.13;5050237;28;1338;-48
2024/04/04 07:22:23;;;;;;;;;;;;;;;16.45;50.73;100796.25;5059095;28;1095;-51
2024/04/04 07:24:49;;;;;;;;;;;;;;;17.87;47.08;100797.50;5065906;28;1974;-48
2024/04/04 07:27:14;;;;;;;;;;;;;;;17.00;49.01;100804.84;5053884;28;966;-48
2024/04/04 07:29:41;;;;;;;;;;;;;;;16.58;50.26;100803.16;5052566;28;1239;-49
2024/04/04 07:32:07;;;;;;;;;;;;;;;16.37;50.58;100799.56;5061719;28;1155;-49
2024/04/04 07:34:33;;;;;;;;;;;;;;;16.19;51.06;100796.22;5059193;28;1143;-49
2024/04/04 07:36:59;;;;;;;;;;;;;;;16.09;51.57;100804.44;5039030;28;1485;-50
2024/04/04 07:39:25;;;;;;;;;;;;;;;16.43;50.65;100807.50;5048617;28;1119;-51
2024/04/04 07:41:50;;;;;;;;;;;;;;;17.83;47.07;100791.72;5043603;28;1147;-46
2024/04/04 07:44:16;;;;;;;;;;;;;;;17.09;49.14;100800.41;5041391;28;1906;-50
2024/04/04 07:46:41;;;;;;;;;;;;;;;16.64;50.25;100796.56;5040490;28;1107;-49
2024/04/04 07:49:07;;;;;;;;;;;;;;;16.45;50.77;100801.75;5038174;28;996;-51
2024/04/04 07:51:33;;;;;;;;;;;;;;;16.33;50.89;100799.28;5074322;28;1533;-47
2024/04/04 07:53:58;;;;;;;;;;;;;;;16.22;51.33;100792.09;5076371;28;1118;-48
2024/04/04 07:56:24;;;;;;;;;;;;;;;16.09;51.46;100796.19;5060203;28;1079;-50
2024/04/04 07:58:49;;;;;;;;;;;;;;;16.00;51.79;100784.09;5048228;28;1274;-48
2024/04/04 08:01:17;;;;;;;;;;;;;;;16.72;50.35;100795.22;5056162;28;1095;-53
2024/04/04 08:03:43;;;;;;;;;;;;;;;17.72;47.58;100790.91;5054503;28;1902;-49
2024/04/04 08:06:09;;;;;;;;;;;;;;;16.84;49.92;100787.50;5038644;28;1297;-50
2024/04/04 08:08:34;;;;;;;;;;;;;;;16.59;50.42;100786.41;5063168;28;1091;-48
2024/04/04 08:11:00;;;;;;;;;;;;;;;16.42;51.15;100783.94;5064820;28;1231;-48
2024/04/04 08:13:25;;;;;;;;;;;;;;;16.24;51.50;100781.69;5054305;28;909;-49
2024/04/04 08:15:51;;;;;;;;;;;;;;;16.15;51.64;100775.09;5067339;28;995;-50
2024/04/04 08:18:19;;;;;;;;;;;;;;;16.10;51.70;100780.56;5052298;28;1153;-49
2024/04/04 08:20:45;;;;;;;;;;;;;;;17.37;48.85;100778.94;5070718;28;861;-50
2024/04/04 08:23:11;;;;;;;;;;;;;;;17.34;48.70;100779.50;5062995;28;1973;-46
2024/04/04 08:25:36;;;;;;;;;;;;;;;16.74;50.34;100776.53;5068362;28;983;-50
2024/04/04 08:28:04;;;;;;;;;;;;;;;16.61;50.64;100775.16;5056253;28;914;-48
2024/04/04 08:30:29;;;;;;;;;;;;;;;16.36;51.48;100770.47;5067741;28;1099;-51
2024/04/04 08:32:55;;;;;;;;;;;;;;;16.31;51.25;100770.44;5066704;28;1129;-47
2024/04/04 08:35:20;;;;;;;;;;;;;;;16.14;51.96;100773.44;5080235;28;999;-48
2024/04/04 08:37:46;;;;;;;;;;;;;;;16.12;51.80;100770.13;5059581;28;1119;-47
2024/04/04 08:40:12;;;;;;;;;;;;;;;16.04;52.20;100774.22;5046992;28;996;-46
2024/04/04 08:42:37;;;;;;;;;;;;;;;17.02;49.83;100761.41;5053544;28;1364;-48
2024/04/04 08:45:03;;;;;;;;;;;;;;;17.70;48.01;100776.66;5061557;28;1988;-47
2024/04/04 08:47:30;;;;;;;;;;;;;;;16.91;50.14;100763.38;5041533;28;1429;-49
2024/04/04 08:49:55;;;;;;;;;;;;;;;16.61;50.60;100761.44;5042161;28;1349;-46
2024/04/04 08:52:21;;;;;;;;;;;;;;;16.39;51.25;100770.72;5041612;28;1254;-49
2024/04/04 08:54:47;;;;;;;;;;;;;;;16.29;51.47;100765.22;5055541;28;1309;-48
2024/04/04 08:57:12;;;;;;;;;;;;;;;17.63;48.65;100754.13;5059530;28;1051;-46
2024/04/04 08:59:38;;;;;;;;;;;;;;;17.07;49.45;100758.69;5058724;28;2399;-50
2024/04/04 09:02:04;;;;;;;;;;;;;;;16.62;50.98;100757.59;5057987;28;1265;-49
2024/04/04 09:04:33;;;;;;;;;;;;;;;16.43;51.58;100760.84;5059472;28;1901;-48
2024/04/04 09:06:58;;;;;;;;;;;;;;;16.31;51.61;100752.03;5048402;28;1095;-49
2024/04/04 09:09:24;;;;;;;;;;;;;;;16.20;52.13;100759.47;5059537;28;952;-50
2024/04/04 09:11:50;;;;;;;;;;;;;;;16.25;51.89;100753.16;5044366;28;1237;-51
2024/04/04 09:14:16;;;;;;;;;;;;;;;16.25;52.07;100748.47;5058928;28;1496;-48
2024/04/04 09:16:41;;;;;;;;;;;;;;;17.78;48.38;100742.22;5059249;28;973;-47
2024/04/04 09:19:10;;;;;;;;;;;;;;;17.21;49.24;100747.13;5049697;28;1493;-49
2024/04/04 09:21:36;;;;;;;;;;;;;;;16.72;50.73;100746.59;5057295;28;1200;-50
2024/04/04 09:24:05;;;;;;;;;;;;;;;16.54;51.15;100744.41;5067920;28;1933;-50
2024/04/04 09:26:31;;;;;;;;;;;;;;;16.36;51.78;100734.78;5065599;28;1151;-50
2024/04/04 09:28:57;;;;;;;;;;;;;;;16.29;51.93;100726.81;5064920;28;2714;-50
2024/04/04 09:31:24;;;;;;;;;;;;;;;16.21;52.12;100727.34;5064642;28;1108;-49
2024/04/04 09:33:50;;;;;;;;;;;;;;;16.34;51.89;100731.47;5021637;28;1183;-46
2024/04/04 09:36:15;;;;;;;;;;;;;;;17.85;48.19;100725.41;5053781;28;1333;-49
2024/04/04 09:38:41;;;;;;;;;;;;;;;17.14;49.76;100732.81;5064472;28;1107;-51
2024/04/04 09:41:07;;;;;;;;;;;;;;;16.71;51.06;100733.16;5064768;28;1012;-47
2024/04/04 09:43:32;;;;;;;;;;;;;;;16.53;51.45;100720.78;5058654;28;1989;-49
2024/04/04 09:45:58;;;;;;;;;;;;;;;16.34;52.01;100724.09;5078680;28;1035;-46
2024/04/04 09:48:24;;;;;;;;;;;;;;;16.25;51.97;100721.03;5060074;28;1110;-47
2024/04/04 09:50:49;;;;;;;;;;;;;;;16.20;52.11;100729.28;5078786;28;991;-46
2024/04/04 09:53:15;;;;;;;;;;;;;;;16.11;52.49;100719.94;5060614;28;1067;-50
2024/04/04 09:55:43;;;;;;;;;;;;;;;17.68;48.57;100723.84;5076380;28;1075;-50
2024/04/04 09:58:09;;;;;;;;;;;;;;;16.99;50.03;100719.97;5071547;28;2617;-52
2024/04/04 10:00:34;;;;;;;;;;;;;;;16.60;51.07;100721.34;5041526;28;1017;-49
2024/04/04 10:03:00;;;;;;;;;;;;;;;16.48;51.53;100720.78;5053769;28;1975;-48
2024/04/04 10:05:35;;;;;;;;;;;;;;;16.29;52.30;100718.59;5078678;28;1078;-48
2024/04/04 10:08:08;;;;;;;;;;;;;;;16.21;52.32;100702.66;5071397;28;1014;-48
2024/04/04 10:10:34;;;;;;;;;;;;;;;16.74;51.28;100714.19;5077782;28;1022;-50
2024/04/04 10:13:03;;;;;;;;;;;;;;;17.76;48.40;100704.00;5075455;28;1224;-47
2024/04/04 10:15:30;;;;;;;;;;;;;;;16.98;50.52;100701.84;5067965;28;1577;-47
2024/04/04 10:17:56;;;;;;;;;;;;;;;16.63;51.44;100707.06;5060175;28;1679;-46
2024/04/04 10:20:22;;;;;;;;;;;;;;;16.46;51.86;100698.28;5057371;28;1584;-50
2024/04/04 10:23:00;;;;;;;;;;;;;;;16.36;52.07;100693.63;5044935;28;1068;-48
2024/04/04 10:25:25;;;;;;;;;;;;;;;16.18;52.27;100687.56;5068303;28;1067;-47
2024/04/04 10:28:00;;;;;;;;;;;;;;;16.40;51.91;100683.75;5045177;28;2891;-47
2024/04/04 10:30:25;;;;;;;;;;;;;;;17.95;48.21;100684.13;5045313;28;1111;-49
2024/04/04 10:32:51;;;;;;;;;;;;;;;17.16;49.97;100683.94;5044939;28;1285;-44
2024/04/04 10:35:16;;;;;;;;;;;;;;;16.68;51.21;100687.03;5044940;28;1040;-50
2024/04/04 10:37:42;;;;;;;;;;;;;;;16.56;51.42;100688.13;5040701;28;1281;-45
2024/04/04 10:40:08;;;;;;;;;;;;;;;16.36;52.09;100683.47;5041736;28;1595;-46
2024/04/04 10:42:33;;;;;;;;;;;;;;;16.31;52.23;100675.22;5046562;28;1294;-47
2024/04/04 10:44:59;;;;;;;;;;;;;;;16.29;52.33;100679.34;5040070;28;1913;-49
2024/04/04 10:47:25;;;;;;;;;;;;;;;16.22;52.15;100674.13;5040680;28;992;-44
2024/04/04 10:49:50;;;;;;;;;;;;;;;16.04;52.54;100662.59;5044467;28;1258;-49
2024/04/04 10:52:16;;;;;;;;;;;;;;;16.70;51.50;100671.91;5047984;28;1376;-47
2024/04/04 10:54:42;;;;;;;;;;;;;;;17.77;48.58;100664.41;5050955;28;1293;-50
2024/04/04 10:57:07;;;;;;;;;;;;;;;16.93;50.72;100678.75;5049113;28;1059;-49
2024/04/04 10:59:33;;;;;;;;;;;;;;;16.62;51.46;100669.75;5068481;28;2651;-49
2024/04/04 11:02:02;;;;;;;;;;;;;;;16.43;51.95;100678.50;5049694;28;1194;-46
2024/04/04 11:04:29;;;;;;;;;;;;;;;16.28;52.19;100674.97;5055005;28;1906;-51
2024/04/04 11:06:54;;;;;;;;;;;;;;;16.21;52.32;100677.97;5049547;28;1484;-45
2024/04/04 11:09:20;;;;;;;;;;;;;;;16.18;52.38;100684.81;5061110;28;1071;-45
2024/04/04 11:11:49;;;;;;;;;;;;;;;17.07;50.41;100681.75;5050853;28;1013;-48
2024/04/04 11:14:14;;;;;;;;;;;;;;;17.72;48.67;100677.34;5057191;28;1305;-45
2024/04/04 11:16:40;;;;;;;;;;;;;;;16.94;50.63;100671.34;5038841;28;1297;-47
2024/04/04 11:19:06;;;;;;;;;;;;;;;16.59;51.61;100673.84;5056897;28;1149;-46
2024/04/04 11:21:32;;;;;;;;;;;;;;;16.48;51.71;100674.13;5055540;28;1095;-50
2024/04/04 11:23:57;;;;;;;;;;;;;;;16.41;52.15;100664.25;5056090;28;1914;-46
2024/04/04 11:26:24;;;;;;;;;;;;;;;16.28;52.29;100664.78;5037337;28;1274;-51
2024/04/04 11:28:50;;;;;;;;;;;;;;;16.54;51.94;100667.56;5067367;28;2525;-50
2024/04/04 11:31:16;;;;;;;;;;;;;;;17.89;48.24;100668.72;5076692;28;1039;-46
2024/04/04 11:33:42;;;;;;;;;;;;;;;17.08;50.44;100658.69;5051739;28;1147;-52
2024/04/04 11:36:08;;;;;;;;;;;;;;;16.66;51.33;100664.50;5071932;28;1179;-50
2024/04/04 11:38:34;;;;;;;;;;;;;;;16.47;51.97;100662.34;5047885;28;1070;-50
2024/04/04 11:40:59;;;;;;;;;;;;;;;16.39;52.06;100666.44;5058847;28;1001;-48
2024/04/04 11:43:25;;;;;;;;;;;;;;;16.21;52.62;100658.75;5075987;28;1978;-50
2024/04/04 11:45:51;;;;;;;;;;;;;;;16.86;51.42;100655.41;5074451;28;1508;-47
2024/04/04 11:48:17;;;;;;;;;;;;;;;17.87;48.65;100644.25;5069108;28;1142;-45
2024/04/04 11:50:43;;;;;;;;;;;;;;;16.99;50.80;100640.31;5057701;28;1285;-46
2024/04/04 11:53:11;;;;;;;;;;;;;;;16.65;51.85;100647.22;5072998;28;1076;-48
2024/04/04 11:55:38;;;;;;;;;;;;;;;16.52;51.96;100637.63;5062337;28;1186;-46
2024/04/04 11:58:04;;;;;;;;;;;;;;;16.33;52.60;100634.63;5062908;28;2608;-50
2024/04/04 12:00:29;;;;;;;;;;;;;;;16.18;52.70;100627.22;5043083;28;993;-49
2024/04/04 12:02:55;;;;;;;;;;;;;;;16.15;52.71;100630.50;5069065;28;1901;-46
2024/04/04 12:05:20;;;;;;;;;;;;;;;17.33;50.07;100629.44;5074795;28;1141;-51
2024/04/04 12:07:46;;;;;;;;;;;;;;;17.57;49.36;100645.25;5055512;28;1469;-48
2024/04/04 12:10:14;;;;;;;;;;;;;;;16.86;51.07;100656.22;5049730;28;1066;-47
2024/04/04 12:12:40;;;;;;;;;;;;;;;16.63;51.92;100646.66;5066413;28;1088;-46
2024/04/04 12:15:07;;;;;;;;;;;;;;;16.44;52.44;100646.44;5074992;28;1635;-51
2024/04/04 12:17:36;;;;;;;;;;;;;;;16.31;52.46;100645.03;5063077;28;1209;-51
2024/04/04 12:20:02;;;;;;;;;;;;;;;16.15;53.12;100626.94;5053576;28;1048;-50
2024/04/04 12:22:28;;;;;;;;;;;;;;;16.24;52.96;100636.25;5057296;28;1158;-48
2024/04/04 12:24:53;;;;;;;;;;;;;;;17.77;49.08;100636.91;5055895;28;1902;-50
2024/04/04 12:27:20;;;;;;;;;;;;;;;17.33;50.10;100640.44;5060557;28;2615;-45
2024/04/04 12:29:45;;;;;;;;;;;;;;;16.80;51.64;100631.81;5058829;28;1289;-49
2024/04/04 12:32:11;;;;;;;;;;;;;;;16.50;52.04;100622.53;5062839;28;1372;-48
2024/04/04 12:34:36;;;;;;;;;;;;;;;16.46;52.48;100627.75;5061094;28;1071;-48
2024/04/04 12:37:02;;;;;;;;;;;;;;;16.34;52.41;100630.78;5050132;28;1281;-51
2024/04/04 12:39:28;;;;;;;;;;;;;;;16.99;51.38;100629.31;5038487;28;1552;-45
2024/04/04 12:41:53;;;;;;;;;;;;;;;17.92;48.84;100624.16;5048645;28;1064;-44